sensor_id;sensor_type;location;lat;lon;timestamp;temperature;humidity
3648;DHT22;1840;48.892;15.312;2024-01-30T00:01:57;-1.40;99.90
3648;DHT22;1840;48.892;15.312;2024-01-30T00:04:26;-1.30;99.90
3648;DHT22;1840;48.892;15.312;2024-01-30T00:06:54;-1.40;99.90
3648;DHT22;1840;48.892;15.312;2024-01-30T00:09:22;-1.40;99.90
3648;DHT22;1840;48.892;15.312;2024-01-30T00:11:51;-1.30;99.90
3648;DHT22;1840;48.892;15.312;2024-01-30T00:14:20;-1.20;99.90
3648;DHT22;1840;48.892;15.312;2024-01-30T00:16:50;-1.20;99.90
3648;DHT22;1840;48.892;15.312;2024-01-30T00:19:20;-1.20;99.90
3648;DHT22;1840;48.892;15.312;2024-01-30T00:21:48;-1.20;99.90
3648;DHT22;1840;48.892;15.312;2024-01-30T00:24:17;-1.20;99.90
3648;DHT22;1840;48.892;15.312;2024-01-30T00:26:46;-1.10;99.90
3648;DHT22;1840;48.892;15.312;2024-01-30T00:29:14;-1.20;99.90
3648;DHT22;1840;48.892;15.312;2024-01-30T00:31:47;-1.20;99.90
3648;DHT22;1840;48.892;15.312;2024-01-30T00:34:16;-1.20;99.90
3648;DHT22;1840;48.892;15.312;2024-01-30T00:36:45;-1.30;99.90
3648;DHT22;1840;48.892;15.312;2024-01-30T00:39:13;-1.30;99.90
3648;DHT22;1840;48.892;15.312;2024-01-30T00:41:42;-1.40;99.90
3648;DHT22;1840;48.892;15.312;2024-01-30T00:44:11;-1.40;99.90
3648;DHT22;1840;48.892;15.312;2024-01-30T00:46:40;-1.30;99.90
3648;DHT22;1840;48.892;15.312;2024-01-30T00:49:08;-1.40;99.90
3648;DHT22;1840;48.892;15.312;2024-01-30T00:51:38;-1.40;99.90
3648;DHT22;1840;48.892;15.312;2024-01-30T00:54:06;-1.40;99.90
3648;DHT22;1840;48.892;15.312;2024-01-30T00:56:35;-1.40;99.90
3648;DHT22;1840;48.892;15.312;2024-01-30T00:59:03;-1.40;99.90
3648;DHT22;1840;48.892;15.312;2024-01-30T01:01:32;-1.40;99.90
3648;DHT22;1840;48.892;15.312;2024-01-30T01:04:00;-1.30;99.90
3648;DHT22;1840;48.892;15.312;2024-01-30T01:06:29;-1.30;99.90
3648;DHT22;1840;48.892;15.312;2024-01-30T01:08:59;-1.20;99.90
3648;DHT22;1840;48.892;15.312;2024-01-30T01:11:30;-1.30;99.90
3648;DHT22;1840;48.892;15.312;2024-01-30T01:13:59;-1.50;99.90
3648;DHT22;1840;48.892;15.312;2024-01-30T01:16:27;-1.50;99.90
3648;DHT22;1840;48.892;15.312;2024-01-30T01:18:56;-1.40;99.90
3648;DHT22;1840;48.892;15.312;2024-01-30T01:21:24;-1.50;99.90
3648;DHT22;1840;48.892;15.312;2024-01-30T01:23:52;-1.50;99.90
3648;DHT22;1840;48.892;15.312;2024-01-30T01:26:22;-1.60;99.90
3648;DHT22;1840;48.892;15.312;2024-01-30T01:28:51;-1.60;99.90
3648;DHT22;1840;48.892;15.312;2024-01-30T01:31:20;-1.60;99.90
3648;DHT22;1840;48.892;15.312;2024-01-30T01:33:51;-1.50;99.90
3648;DHT22;1840;48.892;15.312;2024-01-30T01:36:20;-1.60;99.90
3648;DHT22;1840;48.892;15.312;2024-01-30T01:38:48;-1.70;99.90
3648;DHT22;1840;48.892;15.312;2024-01-30T01:41:17;-1.60;99.90
3648;DHT22;1840;48.892;15.312;2024-01-30T01:43:48;-1.70;99.90
3648;DHT22;1840;48.892;15.312;2024-01-30T01:46:17;-1.80;99.90
3648;DHT22;1840;48.892;15.312;2024-01-30T01:48:46;-1.80;99.90
3648;DHT22;1840;48.892;15.312;2024-01-30T01:51:16;-1.90;99.90
3648;DHT22;1840;48.892;15.312;2024-01-30T01:53:44;-1.80;99.90
3648;DHT22;1840;48.892;15.312;2024-01-30T01:56:13;-1.70;99.90
3648;DHT22;1840;48.892;15.312;2024-01-30T01:58:41;-1.70;99.90
3648;DHT22;1840;48.892;15.312;2024-01-30T02:01:14;-1.60;99.90
3648;DHT22;1840;48.892;15.312;2024-01-30T02:03:43;-1.40;99.90
3648;DHT22;1840;48.892;15.312;2024-01-30T02:06:11;-1.30;99.90
3648;DHT22;1840;48.892;15.312;2024-01-30T02:08:40;-1.20;99.90
3648;DHT22;1840;48.892;15.312;2024-01-30T02:11:09;-1.30;99.90
3648;DHT22;1840;48.892;15.312;2024-01-30T02:13:38;-1.30;99.90
3648;DHT22;1840;48.892;15.312;2024-01-30T02:16:06;-1.30;99.90
3648;DHT22;1840;48.892;15.312;2024-01-30T02:18:36;-1.30;99.90
3648;DHT22;1840;48.892;15.312;2024-01-30T02:21:10;-1.30;99.90
3648;DHT22;1840;48.892;15.312;2024-01-30T02:23:40;-1.30;99.90
3648;DHT22;1840;48.892;15.312;2024-01-30T02:26:09;-1.40;99.90
3648;DHT22;1840;48.892;15.312;2024-01-30T02:28:46;-1.40;99.90
3648;DHT22;1840;48.892;15.312;2024-01-30T02:31:15;-1.60;99.90
3648;DHT22;1840;48.892;15.312;2024-01-30T02:33:43;-1.60;99.90
3648;DHT22;1840;48.892;15.312;2024-01-30T02:36:13;-1.60;99.90
3648;DHT22;1840;48.892;15.312;2024-01-30T02:38:42;-1.70;99.90
3648;DHT22;1840;48.892;15.312;2024-01-30T02:41:11;-2.00;99.90
3648;DHT22;1840;48.892;15.312;2024-01-30T02:43:39;-1.90;99.90
3648;DHT22;1840;48.892;15.312;2024-01-30T02:46:09;-1.80;99.90
3648;DHT22;1840;48.892;15.312;2024-01-30T02:48:38;-1.70;99.90
3648;DHT22;1840;48.892;15.312;2024-01-30T02:51:07;-1.80;99.90
3648;DHT22;1840;48.892;15.312;2024-01-30T02:53:35;-1.70;99.90
3648;DHT22;1840;48.892;15.312;2024-01-30T02:56:04;-1.60;99.90
3648;DHT22;1840;48.892;15.312;2024-01-30T02:58:37;-1.40;99.90
3648;DHT22;1840;48.892;15.312;2024-01-30T03:01:05;-1.50;99.90
3648;DHT22;1840;48.892;15.312;2024-01-30T03:03:35;-1.60;99.90
3648;DHT22;1840;48.892;15.312;2024-01-30T03:06:04;-1.60;99.90
3648;DHT22;1840;48.892;15.312;2024-01-30T03:08:34;-1.60;99.90
3648;DHT22;1840;48.892;15.312;2024-01-30T03:11:03;-1.60;99.90
3648;DHT22;1840;48.892;15.312;2024-01-30T03:13:31;-1.60;99.90
3648;DHT22;1840;48.892;15.312;2024-01-30T03:15:59;-1.60;99.90
3648;DHT22;1840;48.892;15.312;2024-01-30T03:18:28;-1.80;99.90
3648;DHT22;1840;48.892;15.312;2024-01-30T03:20:58;-1.70;99.90
3648;DHT22;1840;48.892;15.312;2024-01-30T03:23:26;-1.80;99.90
3648;DHT22;1840;48.892;15.312;2024-01-30T03:25:55;-1.80;99.90
3648;DHT22;1840;48.892;15.312;2024-01-30T03:28:23;-1.80;99.90
3648;DHT22;1840;48.892;15.312;2024-01-30T03:30:51;-1.60;99.90
3648;DHT22;1840;48.892;15.312;2024-01-30T03:33:20;-1.40;99.90
3648;DHT22;1840;48.892;15.312;2024-01-30T03:35:48;-1.50;99.90
3648;DHT22;1840;48.892;15.312;2024-01-30T03:38:18;-1.40;99.90
3648;DHT22;1840;48.892;15.312;2024-01-30T03:40:47;-1.40;99.90
3648;DHT22;1840;48.892;15.312;2024-01-30T03:43:15;-1.30;99.90
3648;DHT22;1840;48.892;15.312;2024-01-30T03:45:43;-1.50;99.90
3648;DHT22;1840;48.892;15.312;2024-01-30T03:48:12;-1.40;99.90
3648;DHT22;1840;48.892;15.312;2024-01-30T03:50:41;-1.50;99.90
3648;DHT22;1840;48.892;15.312;2024-01-30T03:53:09;-1.60;99.90
3648;DHT22;1840;48.892;15.312;2024-01-30T03:55:39;-1.80;99.90
3648;DHT22;1840;48.892;15.312;2024-01-30T03:58:07;-1.60;99.90
3648;DHT22;1840;48.892;15.312;2024-01-30T04:00:36;-1.50;99.90
3648;DHT22;1840;48.892;15.312;2024-01-30T04:03:04;-1.60;99.90
3648;DHT22;1840;48.892;15.312;2024-01-30T04:05:34;-1.90;99.90
3648;DHT22;1840;48.892;15.312;2024-01-30T04:08:02;-1.90;99.90
3648;DHT22;1840;48.892;15.312;2024-01-30T04:10:31;-1.80;99.90
3648;DHT22;1840;48.892;15.312;2024-01-30T04:13:01;-1.90;99.90
3648;DHT22;1840;48.892;15.312;2024-01-30T04:15:29;-1.80;99.90
3648;DHT22;1840;48.892;15.312;2024-01-30T04:17:58;-2.00;99.90
3648;DHT22;1840;48.892;15.312;2024-01-30T04:20:27;-2.10;99.90
3648;DHT22;1840;48.892;15.312;2024-01-30T04:22:56;-2.10;99.90
3648;DHT22;1840;48.892;15.312;2024-01-30T04:25:24;-2.00;99.90
3648;DHT22;1840;48.892;15.312;2024-01-30T04:27:53;-2.00;99.90
3648;DHT22;1840;48.892;15.312;2024-01-30T04:30:23;-2.10;99.90
3648;DHT22;1840;48.892;15.312;2024-01-30T04:32:51;-2.00;99.90
3648;DHT22;1840;48.892;15.312;2024-01-30T04:35:20;-1.90;99.90
3648;DHT22;1840;48.892;15.312;2024-01-30T04:37:52;-1.90;99.90
3648;DHT22;1840;48.892;15.312;2024-01-30T04:40:21;-1.90;99.90
3648;DHT22;1840;48.892;15.312;2024-01-30T04:42:50;-1.80;99.90
3648;DHT22;1840;48.892;15.312;2024-01-30T04:45:19;-1.80;99.90
3648;DHT22;1840;48.892;15.312;2024-01-30T04:47:49;-2.00;99.90
3648;DHT22;1840;48.892;15.312;2024-01-30T04:50:18;-2.00;99.90
3648;DHT22;1840;48.892;15.312;2024-01-30T04:52:46;-2.10;99.90
3648;DHT22;1840;48.892;15.312;2024-01-30T04:55:14;-2.00;99.90
3648;DHT22;1840;48.892;15.312;2024-01-30T04:57:46;-1.80;99.90
3648;DHT22;1840;48.892;15.312;2024-01-30T05:00:16;-1.80;99.90
3648;DHT22;1840;48.892;15.312;2024-01-30T05:02:44;-1.80;99.90
3648;DHT22;1840;48.892;15.312;2024-01-30T05:05:14;-1.80;99.90
3648;DHT22;1840;48.892;15.312;2024-01-30T05:07:43;-1.90;99.90
3648;DHT22;1840;48.892;15.312;2024-01-30T05:10:12;-2.00;99.90
3648;DHT22;1840;48.892;15.312;2024-01-30T05:12:40;-2.00;99.90
3648;DHT22;1840;48.892;15.312;2024-01-30T05:15:10;-1.70;99.90
3648;DHT22;1840;48.892;15.312;2024-01-30T05:17:38;-2.00;99.90
3648;DHT22;1840;48.892;15.312;2024-01-30T05:20:07;-2.10;99.90
3648;DHT22;1840;48.892;15.312;2024-01-30T05:22:39;-2.10;99.90
3648;DHT22;1840;48.892;15.312;2024-01-30T05:25:12;-1.90;99.90
3648;DHT22;1840;48.892;15.312;2024-01-30T05:27:41;-1.90;99.90
3648;DHT22;1840;48.892;15.312;2024-01-30T05:30:10;-2.10;99.90
3648;DHT22;1840;48.892;15.312;2024-01-30T05:32:39;-2.10;99.90
3648;DHT22;1840;48.892;15.312;2024-01-30T05:35:08;-2.10;99.90
3648;DHT22;1840;48.892;15.312;2024-01-30T05:37:36;-2.10;99.90
3648;DHT22;1840;48.892;15.312;2024-01-30T05:40:08;-2.20;99.90
3648;DHT22;1840;48.892;15.312;2024-01-30T05:42:39;-2.30;99.90
3648;DHT22;1840;48.892;15.312;2024-01-30T05:45:08;-2.40;99.90
3648;DHT22;1840;48.892;15.312;2024-01-30T05:47:36;-2.50;99.90
3648;DHT22;1840;48.892;15.312;2024-01-30T05:50:06;-2.40;99.90
3648;DHT22;1840;48.892;15.312;2024-01-30T05:52:35;-2.50;99.90
3648;DHT22;1840;48.892;15.312;2024-01-30T05:55:06;-2.40;99.90
3648;DHT22;1840;48.892;15.312;2024-01-30T05:57:34;-2.30;99.90
3648;DHT22;1840;48.892;15.312;2024-01-30T06:00:03;-2.30;99.90
3648;DHT22;1840;48.892;15.312;2024-01-30T06:02:31;-2.20;99.90
3648;DHT22;1840;48.892;15.312;2024-01-30T06:05:01;-2.20;99.90
3648;DHT22;1840;48.892;15.312;2024-01-30T06:07:31;-2.40;99.90
3648;DHT22;1840;48.892;15.312;2024-01-30T06:10:04;-2.40;99.90
3648;DHT22;1840;48.892;15.312;2024-01-30T06:12:35;-2.20;99.90
3648;DHT22;1840;48.892;15.312;2024-01-30T06:15:05;-2.10;99.90
3648;DHT22;1840;48.892;15.312;2024-01-30T06:17:34;-2.10;99.90
3648;DHT22;1840;48.892;15.312;2024-01-30T06:20:03;-2.00;99.90
3648;DHT22;1840;48.892;15.312;2024-01-30T06:22:32;-2.00;99.90
3648;DHT22;1840;48.892;15.312;2024-01-30T06:25:00;-2.30;99.90
3648;DHT22;1840;48.892;15.312;2024-01-30T06:27:29;-2.50;99.90
3648;DHT22;1840;48.892;15.312;2024-01-30T06:29:59;-2.50;99.90
3648;DHT22;1840;48.892;15.312;2024-01-30T06:32:27;-2.40;99.90
3648;DHT22;1840;48.892;15.312;2024-01-30T06:35:01;-2.10;99.90
3648;DHT22;1840;48.892;15.312;2024-01-30T06:37:30;-1.90;99.90
3648;DHT22;1840;48.892;15.312;2024-01-30T06:39:58;-2.00;99.90
3648;DHT22;1840;48.892;15.312;2024-01-30T06:42:27;-2.10;99.90
3648;DHT22;1840;48.892;15.312;2024-01-30T06:44:56;-2.40;99.90
3648;DHT22;1840;48.892;15.312;2024-01-30T06:47:26;-2.50;99.90
3648;DHT22;1840;48.892;15.312;2024-01-30T06:49:56;-2.70;99.90
3648;DHT22;1840;48.892;15.312;2024-01-30T06:52:25;-2.70;99.90
3648;DHT22;1840;48.892;15.312;2024-01-30T06:54:54;-2.70;99.90
3648;DHT22;1840;48.892;15.312;2024-01-30T06:57:23;-2.50;99.90
3648;DHT22;1840;48.892;15.312;2024-01-30T06:59:51;-2.30;99.90
3648;DHT22;1840;48.892;15.312;2024-01-30T07:02:22;-2.20;99.90
3648;DHT22;1840;48.892;15.312;2024-01-30T07:04:52;-2.40;99.90
3648;DHT22;1840;48.892;15.312;2024-01-30T07:07:20;-2.40;99.90
3648;DHT22;1840;48.892;15.312;2024-01-30T07:09:49;-2.50;99.90
3648;DHT22;1840;48.892;15.312;2024-01-30T07:12:23;-2.40;99.90
3648;DHT22;1840;48.892;15.312;2024-01-30T07:14:53;-2.30;99.90
3648;DHT22;1840;48.892;15.312;2024-01-30T07:17:23;-2.20;99.90
3648;DHT22;1840;48.892;15.312;2024-01-30T07:19:54;-2.10;99.90
3648;DHT22;1840;48.892;15.312;2024-01-30T07:22:22;-2.20;99.90
3648;DHT22;1840;48.892;15.312;2024-01-30T07:24:51;-2.20;99.90
3648;DHT22;1840;48.892;15.312;2024-01-30T07:27:20;-2.20;99.90
3648;DHT22;1840;48.892;15.312;2024-01-30T07:29:51;-2.40;99.90
3648;DHT22;1840;48.892;15.312;2024-01-30T07:32:19;-2.50;99.90
3648;DHT22;1840;48.892;15.312;2024-01-30T07:34:47;-2.60;99.90
3648;DHT22;1840;48.892;15.312;2024-01-30T07:37:34;-2.40;99.90
3648;DHT22;1840;48.892;15.312;2024-01-30T07:40:03;-2.30;99.90
3648;DHT22;1840;48.892;15.312;2024-01-30T07:42:32;-2.20;99.90
3648;DHT22;1840;48.892;15.312;2024-01-30T07:45:00;-2.20;99.90
3648;DHT22;1840;48.892;15.312;2024-01-30T07:47:29;-2.10;99.90
3648;DHT22;1840;48.892;15.312;2024-01-30T07:49:57;-2.10;99.90
3648;DHT22;1840;48.892;15.312;2024-01-30T07:52:26;-2.30;99.90
3648;DHT22;1840;48.892;15.312;2024-01-30T07:54:57;-2.60;99.90
3648;DHT22;1840;48.892;15.312;2024-01-30T07:57:25;-2.70;99.90
3648;DHT22;1840;48.892;15.312;2024-01-30T07:59:53;-2.70;99.90
3648;DHT22;1840;48.892;15.312;2024-01-30T08:02:22;-2.70;99.90
3648;DHT22;1840;48.892;15.312;2024-01-30T08:04:50;-2.60;99.90
3648;DHT22;1840;48.892;15.312;2024-01-30T08:07:19;-2.60;99.90
3648;DHT22;1840;48.892;15.312;2024-01-30T08:09:49;-2.40;99.90
3648;DHT22;1840;48.892;15.312;2024-01-30T08:12:19;-2.30;99.90
3648;DHT22;1840;48.892;15.312;2024-01-30T08:14:48;-2.50;99.90
3648;DHT22;1840;48.892;15.312;2024-01-30T08:17:16;-2.60;99.90
3648;DHT22;1840;48.892;15.312;2024-01-30T08:19:44;-2.50;99.90
3648;DHT22;1840;48.892;15.312;2024-01-30T08:22:13;-2.40;99.90
3648;DHT22;1840;48.892;15.312;2024-01-30T08:24:41;-2.40;99.90
3648;DHT22;1840;48.892;15.312;2024-01-30T08:27:10;-2.30;99.90
3648;DHT22;1840;48.892;15.312;2024-01-30T08:29:40;-2.30;99.90
3648;DHT22;1840;48.892;15.312;2024-01-30T08:32:09;-2.60;99.90
3648;DHT22;1840;48.892;15.312;2024-01-30T08:34:37;-2.60;99.90
3648;DHT22;1840;48.892;15.312;2024-01-30T08:37:05;-2.70;99.90
3648;DHT22;1840;48.892;15.312;2024-01-30T08:39:34;-2.80;99.90
3648;DHT22;1840;48.892;15.312;2024-01-30T08:42:03;-2.60;99.90
3648;DHT22;1840;48.892;15.312;2024-01-30T08:44:31;-2.50;99.90
3648;DHT22;1840;48.892;15.312;2024-01-30T08:47:01;-2.60;99.90
3648;DHT22;1840;48.892;15.312;2024-01-30T08:49:30;-2.60;99.90
3648;DHT22;1840;48.892;15.312;2024-01-30T08:51:58;-2.60;99.90
3648;DHT22;1840;48.892;15.312;2024-01-30T08:54:27;-2.50;99.90
3648;DHT22;1840;48.892;15.312;2024-01-30T08:56:56;-2.50;99.90
3648;DHT22;1840;48.892;15.312;2024-01-30T08:59:26;-2.50;99.90
3648;DHT22;1840;48.892;15.312;2024-01-30T09:01:54;-2.50;99.90
3648;DHT22;1840;48.892;15.312;2024-01-30T09:04:39;-2.40;99.90
3648;DHT22;1840;48.892;15.312;2024-01-30T09:07:09;-2.50;99.90
3648;DHT22;1840;48.892;15.312;2024-01-30T09:09:38;-2.60;99.90
3648;DHT22;1840;48.892;15.312;2024-01-30T09:12:08;-2.50;99.90
3648;DHT22;1840;48.892;15.312;2024-01-30T09:14:39;-2.40;99.90
3648;DHT22;1840;48.892;15.312;2024-01-30T09:17:08;-2.40;99.90
3648;DHT22;1840;48.892;15.312;2024-01-30T09:19:39;-2.30;99.90
3648;DHT22;1840;48.892;15.312;2024-01-30T09:22:08;-2.40;99.90
3648;DHT22;1840;48.892;15.312;2024-01-30T09:24:37;-2.40;99.90
3648;DHT22;1840;48.892;15.312;2024-01-30T09:27:06;-2.40;99.90
3648;DHT22;1840;48.892;15.312;2024-01-30T09:29:34;-2.30;99.90
3648;DHT22;1840;48.892;15.312;2024-01-30T09:32:05;-2.20;99.90
3648;DHT22;1840;48.892;15.312;2024-01-30T09:34:33;-2.10;99.90
3648;DHT22;1840;48.892;15.312;2024-01-30T09:37:04;-2.30;99.90
3648;DHT22;1840;48.892;15.312;2024-01-30T09:39:33;-2.30;99.90
3648;DHT22;1840;48.892;15.312;2024-01-30T09:42:05;-2.30;99.90
3648;DHT22;1840;48.892;15.312;2024-01-30T09:44:35;-2.30;99.90
3648;DHT22;1840;48.892;15.312;2024-01-30T09:47:07;-2.30;99.90
3648;DHT22;1840;48.892;15.312;2024-01-30T09:49:39;-2.30;99.90
3648;DHT22;1840;48.892;15.312;2024-01-30T09:52:12;-2.40;99.90
3648;DHT22;1840;48.892;15.312;2024-01-30T09:54:42;-2.40;99.90
3648;DHT22;1840;48.892;15.312;2024-01-30T09:57:11;-2.30;99.90
3648;DHT22;1840;48.892;15.312;2024-01-30T09:59:42;-2.20;99.90
3648;DHT22;1840;48.892;15.312;2024-01-30T10:02:11;-2.00;99.90
3648;DHT22;1840;48.892;15.312;2024-01-30T10:04:40;-1.70;99.90
3648;DHT22;1840;48.892;15.312;2024-01-30T10:07:11;-1.40;99.90
3648;DHT22;1840;48.892;15.312;2024-01-30T10:09:39;-1.20;99.90
3648;DHT22;1840;48.892;15.312;2024-01-30T10:12:09;-1.10;99.90
3648;DHT22;1840;48.892;15.312;2024-01-30T10:14:38;-1.30;99.90
3648;DHT22;1840;48.892;15.312;2024-01-30T10:17:08;-1.40;99.90
3648;DHT22;1840;48.892;15.312;2024-01-30T10:19:48;-1.50;99.90
3648;DHT22;1840;48.892;15.312;2024-01-30T10:22:18;-1.60;99.90
3648;DHT22;1840;48.892;15.312;2024-01-30T10:24:48;-1.70;99.90
3648;DHT22;1840;48.892;15.312;2024-01-30T10:27:25;-1.80;99.90
3648;DHT22;1840;48.892;15.312;2024-01-30T10:29:54;-1.70;99.90
3648;DHT22;1840;48.892;15.312;2024-01-30T10:32:23;-1.90;99.90
3648;DHT22;1840;48.892;15.312;2024-01-30T10:34:53;-1.80;99.90
3648;DHT22;1840;48.892;15.312;2024-01-30T10:37:25;-1.90;99.90
3648;DHT22;1840;48.892;15.312;2024-01-30T10:39:56;-2.00;99.90
3648;DHT22;1840;48.892;15.312;2024-01-30T10:42:32;-1.80;99.90
3648;DHT22;1840;48.892;15.312;2024-01-30T10:45:02;-2.00;99.90
3648;DHT22;1840;48.892;15.312;2024-01-30T10:47:35;-2.10;99.90
3648;DHT22;1840;48.892;15.312;2024-01-30T10:50:03;-2.10;99.90
3648;DHT22;1840;48.892;15.312;2024-01-30T10:52:33;-2.10;99.90
3648;DHT22;1840;48.892;15.312;2024-01-30T10:55:04;-2.10;99.90
3648;DHT22;1840;48.892;15.312;2024-01-30T10:57:35;-2.10;99.90
3648;DHT22;1840;48.892;15.312;2024-01-30T11:00:06;-2.00;99.90
3648;DHT22;1840;48.892;15.312;2024-01-30T11:02:39;-1.90;99.90
3648;DHT22;1840;48.892;15.312;2024-01-30T11:05:08;-2.10;99.90
3648;DHT22;1840;48.892;15.312;2024-01-30T11:07:39;-1.90;99.90
3648;DHT22;1840;48.892;15.312;2024-01-30T11:10:08;-1.80;99.90
3648;DHT22;1840;48.892;15.312;2024-01-30T11:12:40;-1.70;99.90
3648;DHT22;1840;48.892;15.312;2024-01-30T11:15:13;-1.40;99.90
3648;DHT22;1840;48.892;15.312;2024-01-30T11:17:49;-1.50;99.90
3648;DHT22;1840;48.892;15.312;2024-01-30T11:20:21;-1.60;99.90
3648;DHT22;1840;48.892;15.312;2024-01-30T11:22:53;-1.50;99.90
3648;DHT22;1840;48.892;15.312;2024-01-30T11:25:22;-1.30;99.90
3648;DHT22;1840;48.892;15.312;2024-01-30T11:27:53;-1.30;99.90
3648;DHT22;1840;48.892;15.312;2024-01-30T11:30:23;-1.40;99.90
3648;DHT22;1840;48.892;15.312;2024-01-30T11:32:59;-1.50;99.90
3648;DHT22;1840;48.892;15.312;2024-01-30T11:35:31;-1.20;99.90
3648;DHT22;1840;48.892;15.312;2024-01-30T11:38:02;-1.20;99.90
3648;DHT22;1840;48.892;15.312;2024-01-30T11:40:31;-1.40;99.90
3648;DHT22;1840;48.892;15.312;2024-01-30T11:43:02;-1.60;99.90
3648;DHT22;1840;48.892;15.312;2024-01-30T11:45:31;-1.50;99.90
3648;DHT22;1840;48.892;15.312;2024-01-30T11:48:00;-1.50;99.90
3648;DHT22;1840;48.892;15.312;2024-01-30T11:50:32;-1.50;99.90
3648;DHT22;1840;48.892;15.312;2024-01-30T11:53:03;-1.60;99.90
3648;DHT22;1840;48.892;15.312;2024-01-30T11:55:33;-1.50;99.90
3648;DHT22;1840;48.892;15.312;2024-01-30T11:58:03;-1.50;99.90
3648;DHT22;1840;48.892;15.312;2024-01-30T12:00:32;-1.20;99.90
3648;DHT22;1840;48.892;15.312;2024-01-30T12:03:03;-1.20;99.90
3648;DHT22;1840;48.892;15.312;2024-01-30T12:05:34;-1.30;99.90
3648;DHT22;1840;48.892;15.312;2024-01-30T12:08:05;-1.20;99.90
3648;DHT22;1840;48.892;15.312;2024-01-30T12:10:34;-1.10;99.90
3648;DHT22;1840;48.892;15.312;2024-01-30T12:13:03;-1.00;99.90
3648;DHT22;1840;48.892;15.312;2024-01-30T12:15:32;-1.00;99.90
3648;DHT22;1840;48.892;15.312;2024-01-30T12:18:07;-0.70;99.80
3648;DHT22;1840;48.892;15.312;2024-01-30T12:20:39;-0.90;99.70
3648;DHT22;1840;48.892;15.312;2024-01-30T12:23:12;-1.20;99.70
3648;DHT22;1840;48.892;15.312;2024-01-30T12:25:41;-1.20;99.90
3648;DHT22;1840;48.892;15.312;2024-01-30T12:28:10;-1.40;99.90
3648;DHT22;1840;48.892;15.312;2024-01-30T12:30:40;-1.60;99.90
3648;DHT22;1840;48.892;15.312;2024-01-30T12:33:09;-1.70;99.90
3648;DHT22;1840;48.892;15.312;2024-01-30T12:35:46;-1.40;99.90
3648;DHT22;1840;48.892;15.312;2024-01-30T12:38:29;-1.30;99.90
3648;DHT22;1840;48.892;15.312;2024-01-30T12:40:59;-1.20;99.90
3648;DHT22;1840;48.892;15.312;2024-01-30T12:43:29;-1.10;99.90
3648;DHT22;1840;48.892;15.312;2024-01-30T12:46:05;-0.90;99.90
3648;DHT22;1840;48.892;15.312;2024-01-30T12:48:34;-1.10;99.80
3648;DHT22;1840;48.892;15.312;2024-01-30T12:51:03;-1.10;99.90
3648;DHT22;1840;48.892;15.312;2024-01-30T12:53:33;-1.20;99.90
3648;DHT22;1840;48.892;15.312;2024-01-30T12:56:01;-1.20;99.90
3648;DHT22;1840;48.892;15.312;2024-01-30T12:58:31;-1.20;99.90
3648;DHT22;1840;48.892;15.312;2024-01-30T13:01:01;-1.40;99.90
3648;DHT22;1840;48.892;15.312;2024-01-30T13:03:30;-1.30;99.90
3648;DHT22;1840;48.892;15.312;2024-01-30T13:06:00;-1.20;99.90
3648;DHT22;1840;48.892;15.312;2024-01-30T13:08:28;-1.10;99.90
3648;DHT22;1840;48.892;15.312;2024-01-30T13:10:58;-1.00;99.90
3648;DHT22;1840;48.892;15.312;2024-01-30T13:13:27;-1.10;99.90
3648;DHT22;1840;48.892;15.312;2024-01-30T13:15:56;-1.20;99.90
3648;DHT22;1840;48.892;15.312;2024-01-30T13:18:25;-1.40;99.90
3648;DHT22;1840;48.892;15.312;2024-01-30T13:20:54;-1.70;99.90
3648;DHT22;1840;48.892;15.312;2024-01-30T13:23:22;-1.70;99.90
3648;DHT22;1840;48.892;15.312;2024-01-30T13:25:51;-1.60;99.90
3648;DHT22;1840;48.892;15.312;2024-01-30T13:28:22;-1.60;99.90
3648;DHT22;1840;48.892;15.312;2024-01-30T13:30:50;-1.70;99.90
3648;DHT22;1840;48.892;15.312;2024-01-30T13:33:19;-1.70;99.90
3648;DHT22;1840;48.892;15.312;2024-01-30T13:35:48;-1.70;99.90
3648;DHT22;1840;48.892;15.312;2024-01-30T13:38:17;-1.60;99.90
3648;DHT22;1840;48.892;15.312;2024-01-30T13:40:45;-1.70;99.90
3648;DHT22;1840;48.892;15.312;2024-01-30T13:43:14;-1.60;99.90
3648;DHT22;1840;48.892;15.312;2024-01-30T13:45:45;-1.60;99.90
3648;DHT22;1840;48.892;15.312;2024-01-30T13:48:14;-1.50;99.90
3648;DHT22;1840;48.892;15.312;2024-01-30T13:50:43;-1.50;99.90
3648;DHT22;1840;48.892;15.312;2024-01-30T13:53:13;-1.50;99.90
3648;DHT22;1840;48.892;15.312;2024-01-30T13:55:43;-1.50;99.90
3648;DHT22;1840;48.892;15.312;2024-01-30T13:58:11;-1.50;99.90
3648;DHT22;1840;48.892;15.312;2024-01-30T14:00:40;-1.40;99.90
3648;DHT22;1840;48.892;15.312;2024-01-30T14:03:10;-1.60;99.90
3648;DHT22;1840;48.892;15.312;2024-01-30T14:05:38;-1.60;99.90
3648;DHT22;1840;48.892;15.312;2024-01-30T14:08:07;-1.60;99.90
3648;DHT22;1840;48.892;15.312;2024-01-30T14:10:36;-1.50;99.90
3648;DHT22;1840;48.892;15.312;2024-01-30T14:13:05;-1.40;99.90
3648;DHT22;1840;48.892;15.312;2024-01-30T14:15:34;-1.50;99.90
3648;DHT22;1840;48.892;15.312;2024-01-30T14:18:02;-1.30;99.90
3648;DHT22;1840;48.892;15.312;2024-01-30T14:20:33;-1.10;99.90
3648;DHT22;1840;48.892;15.312;2024-01-30T14:23:02;-0.80;99.90
3648;DHT22;1840;48.892;15.312;2024-01-30T14:25:31;-0.70;99.90
3648;DHT22;1840;48.892;15.312;2024-01-30T14:28:03;-0.60;99.80
3648;DHT22;1840;48.892;15.312;2024-01-30T14:30:33;-0.50;99.50
3648;DHT22;1840;48.892;15.312;2024-01-30T14:33:03;-0.50;99.30
3648;DHT22;1840;48.892;15.312;2024-01-30T14:35:34;-0.60;99.10
3648;DHT22;1840;48.892;15.312;2024-01-30T14:38:02;-0.60;99.30
3648;DHT22;1840;48.892;15.312;2024-01-30T14:40:34;-0.60;99.10
3648;DHT22;1840;48.892;15.312;2024-01-30T14:43:03;-0.60;98.90
3648;DHT22;1840;48.892;15.312;2024-01-30T14:45:32;-0.60;98.90
3648;DHT22;1840;48.892;15.312;2024-01-30T14:48:00;-0.70;98.60
3648;DHT22;1840;48.892;15.312;2024-01-30T14:50:29;-0.80;99.00
3648;DHT22;1840;48.892;15.312;2024-01-30T14:52:59;-0.90;99.10
3648;DHT22;1840;48.892;15.312;2024-01-30T14:55:30;-0.90;99.50
3648;DHT22;1840;48.892;15.312;2024-01-30T14:57:59;-0.90;99.40
3648;DHT22;1840;48.892;15.312;2024-01-30T15:00:29;-0.90;99.10
3648;DHT22;1840;48.892;15.312;2024-01-30T15:02:58;-0.80;99.10
3648;DHT22;1840;48.892;15.312;2024-01-30T15:05:26;-1.00;99.00
3648;DHT22;1840;48.892;15.312;2024-01-30T15:07:55;-1.10;99.50
3648;DHT22;1840;48.892;15.312;2024-01-30T15:10:25;-1.30;99.70
3648;DHT22;1840;48.892;15.312;2024-01-30T15:12:54;-1.30;99.90
3648;DHT22;1840;48.892;15.312;2024-01-30T15:15:23;-1.10;99.80
3648;DHT22;1840;48.892;15.312;2024-01-30T15:17:54;-1.10;99.40
3648;DHT22;1840;48.892;15.312;2024-01-30T15:20:23;-1.10;99.70
3648;DHT22;1840;48.892;15.312;2024-01-30T15:22:51;-1.00;99.50
3648;DHT22;1840;48.892;15.312;2024-01-30T15:25:20;-1.10;99.10
3648;DHT22;1840;48.892;15.312;2024-01-30T15:27:51;-1.10;99.20
3648;DHT22;1840;48.892;15.312;2024-01-30T15:30:19;-1.10;99.00
3648;DHT22;1840;48.892;15.312;2024-01-30T15:32:48;-1.30;99.00
3648;DHT22;1840;48.892;15.312;2024-01-30T15:35:16;-1.30;99.30
3648;DHT22;1840;48.892;15.312;2024-01-30T15:37:45;-1.30;99.10
3648;DHT22;1840;48.892;15.312;2024-01-30T15:40:13;-1.30;99.20
3648;DHT22;1840;48.892;15.312;2024-01-30T15:42:42;-1.40;98.90
3648;DHT22;1840;48.892;15.312;2024-01-30T15:45:12;-1.50;98.60
3648;DHT22;1840;48.892;15.312;2024-01-30T15:47:41;-1.60;98.80
3648;DHT22;1840;48.892;15.312;2024-01-30T15:50:11;-1.70;98.50
3648;DHT22;1840;48.892;15.312;2024-01-30T15:52:40;-1.90;98.60
3648;DHT22;1840;48.892;15.312;2024-01-30T15:55:08;-1.90;98.90
3648;DHT22;1840;48.892;15.312;2024-01-30T15:57:37;-2.00;98.90
3648;DHT22;1840;48.892;15.312;2024-01-30T16:00:06;-2.10;98.60